sensor_id;sensor_type;location;lat;lon;timestamp;pressure;altitude;pressure_sealevel;temperature;humidity
33075;BME280;19433;51.292;6.868;2022-12-10T00:00:48;99587.16;;;-3.26;100.00
33075;BME280;19433;51.292;6.868;2022-12-10T00:03:13;99586.25;;;-3.36;100.00
33075;BME280;19433;51.292;6.868;2022-12-10T00:05:38;99590.72;;;-3.25;100.00
33075;BME280;19433;51.292;6.868;2022-12-10T00:08:03;99587.28;;;-3.27;100.00
33075;BME280;19433;51.292;6.868;2022-12-10T00:10:29;99584.00;;;-3.31;100.00
33075;BME280;19433;51.292;6.868;2022-12-10T00:12:54;99585.72;;;-3.30;100.00
33075;BME280;19433;51.292;6.868;2022-12-10T00:15:20;99589.13;;;-3.28;100.00
33075;BME280;19433;51.292;6.868;2022-12-10T00:17:45;99579.13;;;-3.46;100.00
33075;BME280;19433;51.292;6.868;2022-12-10T00:20:13;99581.41;;;-3.42;100.00
33075;BME280;19433;51.292;6.868;2022-12-10T00:22:39;99582.78;;;-3.57;100.00
33075;BME280;19433;51.292;6.868;2022-12-10T00:25:04;99578.53;;;-3.50;100.00
33075;BME280;19433;51.292;6.868;2022-12-10T00:27:30;99588.66;;;-3.52;100.00
33075;BME280;19433;51.292;6.868;2022-12-10T00:29:55;99577.06;;;-3.64;100.00
33075;BME280;19433;51.292;6.868;2022-12-10T00:32:21;99578.66;;;-3.61;100.00
33075;BME280;19433;51.292;6.868;2022-12-10T00:34:46;99588.66;;;-3.52;100.00
33075;BME280;19433;51.292;6.868;2022-12-10T00:37:11;99589.78;;;-3.55;100.00
33075;BME280;19433;51.292;6.868;2022-12-10T00:39:37;99577.97;;;-3.53;100.00
33075;BME280;19433;51.292;6.868;2022-12-10T00:42:02;99592.28;;;-3.63;100.00
33075;BME280;19433;51.292;6.868;2022-12-10T00:44:27;99588.00;;;-3.65;100.00
33075;BME280;19433;51.292;6.868;2022-12-10T00:46:52;99591.53;;;-3.74;100.00
33075;BME280;19433;51.292;6.868;2022-12-10T00:49:18;99582.19;;;-3.70;100.00
33075;BME280;19433;51.292;6.868;2022-12-10T00:51:43;99574.13;;;-3.91;100.00
33075;BME280;19433;51.292;6.868;2022-12-10T00:54:08;99582.94;;;-3.89;100.00
33075;BME280;19433;51.292;6.868;2022-12-10T00:56:34;99577.78;;;-4.02;100.00
33075;BME280;19433;51.292;6.868;2022-12-10T00:59:00;99588.34;;;-3.89;100.00
33075;BME280;19433;51.292;6.868;2022-12-10T01:01:35;99591.97;;;-3.69;100.00
33075;BME280;19433;51.292;6.868;2022-12-10T01:04:04;99597.03;;;-3.45;100.00
33075;BME280;19433;51.292;6.868;2022-12-10T01:06:35;99598.44;;;-3.51;100.00
33075;BME280;19433;51.292;6.868;2022-12-10T01:09:05;99595.47;;;-3.78;100.00
33075;BME280;19433;51.292;6.868;2022-12-10T01:11:34;99591.94;;;-3.79;100.00
33075;BME280;19433;51.292;6.868;2022-12-10T01:14:00;99593.53;;;-3.97;100.00
33075;BME280;19433;51.292;6.868;2022-12-10T01:16:26;99596.06;;;-4.05;100.00
33075;BME280;19433;51.292;6.868;2022-12-10T01:18:57;99589.91;;;-4.17;100.00
33075;BME280;19433;51.292;6.868;2022-12-10T01:21:24;99602.97;;;-4.12;100.00
33075;BME280;19433;51.292;6.868;2022-12-10T01:23:51;99604.50;;;-4.19;100.00
33075;BME280;19433;51.292;6.868;2022-12-10T01:26:18;99611.47;;;-4.17;100.00
33075;BME280;19433;51.292;6.868;2022-12-10T01:28:44;99610.16;;;-4.22;100.00
33075;BME280;19433;51.292;6.868;2022-12-10T01:31:12;99606.00;;;-4.27;100.00
33075;BME280;19433;51.292;6.868;2022-12-10T01:33:39;99613.69;;;-4.22;100.00
33075;BME280;19433;51.292;6.868;2022-12-10T01:36:10;99616.72;;;-4.15;100.00
33075;BME280;19433;51.292;6.868;2022-12-10T01:38:36;99615.88;;;-4.16;100.00
33075;BME280;19433;51.292;6.868;2022-12-10T01:41:02;99625.81;;;-4.16;100.00
33075;BME280;19433;51.292;6.868;2022-12-10T01:43:33;99624.88;;;-3.85;100.00
33075;BME280;19433;51.292;6.868;2022-12-10T01:46:12;99622.38;;;-3.98;100.00
33075;BME280;19433;51.292;6.868;2022-12-10T01:48:38;99625.50;;;-3.93;100.00
33075;BME280;19433;51.292;6.868;2022-12-10T01:51:03;99622.69;;;-3.91;100.00
33075;BME280;19433;51.292;6.868;2022-12-10T01:53:29;99618.50;;;-4.05;100.00
33075;BME280;19433;51.292;6.868;2022-12-10T01:55:54;99625.72;;;-4.05;100.00
33075;BME280;19433;51.292;6.868;2022-12-10T01:58:19;99620.38;;;-3.96;100.00
33075;BME280;19433;51.292;6.868;2022-12-10T02:01:00;99629.31;;;-3.95;100.00
33075;BME280;19433;51.292;6.868;2022-12-10T02:03:37;99627.59;;;-3.75;100.00
33075;BME280;19433;51.292;6.868;2022-12-10T02:06:30;99637.00;;;-3.70;100.00
33075;BME280;19433;51.292;6.868;2022-12-10T02:11:48;99641.97;;;-3.96;100.00
33075;BME280;19433;51.292;6.868;2022-12-10T02:14:32;99646.38;;;-3.95;100.00
33075;BME280;19433;51.292;6.868;2022-12-10T02:17:05;99642.03;;;-3.86;100.00
33075;BME280;19433;51.292;6.868;2022-12-10T02:19:54;99628.94;;;-3.91;100.00
33075;BME280;19433;51.292;6.868;2022-12-10T02:22:23;99639.06;;;-3.83;100.00
33075;BME280;19433;51.292;6.868;2022-12-10T02:24:51;99616.91;;;-3.86;100.00
33075;BME280;19433;51.292;6.868;2022-12-10T02:27:46;99634.19;;;-3.89;100.00
33075;BME280;19433;51.292;6.868;2022-12-10T02:30:13;99628.94;;;-3.91;100.00
33075;BME280;19433;51.292;6.868;2022-12-10T02:32:40;99633.34;;;-3.90;100.00
33075;BME280;19433;51.292;6.868;2022-12-10T02:35:22;99645.59;;;-3.85;100.00
33075;BME280;19433;51.292;6.868;2022-12-10T02:37:56;99615.28;;;-3.99;100.00
33075;BME280;19433;51.292;6.868;2022-12-10T02:40:26;99634.72;;;-3.74;100.00
33075;BME280;19433;51.292;6.868;2022-12-10T02:42:55;99622.81;;;-3.62;100.00
33075;BME280;19433;51.292;6.868;2022-12-10T02:45:23;99602.69;;;-3.58;100.00
33075;BME280;19433;51.292;6.868;2022-12-10T02:47:51;99617.59;;;-3.24;100.00
33075;BME280;19433;51.292;6.868;2022-12-10T02:50:19;99616.28;;;-3.29;100.00
33075;BME280;19433;51.292;6.868;2022-12-10T02:52:46;99605.03;;;-3.34;100.00
33075;BME280;19433;51.292;6.868;2022-12-10T02:55:15;99630.13;;;-3.03;100.00
33075;BME280;19433;51.292;6.868;2022-12-10T02:57:56;99619.34;;;-2.94;100.00
33075;BME280;19433;51.292;6.868;2022-12-10T03:00:25;99628.03;;;-2.80;100.00
33075;BME280;19433;51.292;6.868;2022-12-10T03:03:15;99605.84;;;-2.84;100.00
33075;BME280;19433;51.292;6.868;2022-12-10T03:09:07;99640.13;;;-2.75;100.00
33075;BME280;19433;51.292;6.868;2022-12-10T03:11:34;99634.59;;;-2.54;100.00
33075;BME280;19433;51.292;6.868;2022-12-10T03:16:51;99633.19;;;-2.49;100.00
33075;BME280;19433;51.292;6.868;2022-12-10T03:19:21;99651.97;;;-2.37;100.00
33075;BME280;19433;51.292;6.868;2022-12-10T03:21:50;99633.59;;;-2.53;100.00
33075;BME280;19433;51.292;6.868;2022-12-10T03:24:17;99634.75;;;-2.46;100.00
33075;BME280;19433;51.292;6.868;2022-12-10T03:26:45;99654.09;;;-2.41;100.00
33075;BME280;19433;51.292;6.868;2022-12-10T03:29:16;99654.38;;;-2.44;100.00
33075;BME280;19433;51.292;6.868;2022-12-10T03:31:43;99656.94;;;-2.52;100.00
33075;BME280;19433;51.292;6.868;2022-12-10T03:34:10;99646.72;;;-2.49;100.00
33075;BME280;19433;51.292;6.868;2022-12-10T03:36:37;99659.38;;;-2.39;100.00
33075;BME280;19433;51.292;6.868;2022-12-10T03:39:03;99638.47;;;-2.47;100.00
33075;BME280;19433;51.292;6.868;2022-12-10T03:41:30;99658.22;;;-2.37;100.00
33075;BME280;19433;51.292;6.868;2022-12-10T03:43:57;99653.53;;;-2.25;100.00
33075;BME280;19433;51.292;6.868;2022-12-10T03:46:24;99649.97;;;-2.35;100.00
33075;BME280;19433;51.292;6.868;2022-12-10T03:48:51;99650.56;;;-2.32;100.00
33075;BME280;19433;51.292;6.868;2022-12-10T03:51:18;99652.34;;;-1.94;100.00
33075;BME280;19433;51.292;6.868;2022-12-10T03:53:43;99681.41;;;-1.77;100.00
33075;BME280;19433;51.292;6.868;2022-12-10T03:56:09;99666.56;;;-1.82;100.00
33075;BME280;19433;51.292;6.868;2022-12-10T03:58:35;99660.75;;;-1.87;100.00
33075;BME280;19433;51.292;6.868;2022-12-10T04:01:02;99668.88;;;-1.97;100.00
33075;BME280;19433;51.292;6.868;2022-12-10T04:03:27;99649.66;;;-1.94;100.00
33075;BME280;19433;51.292;6.868;2022-12-10T04:05:53;99650.22;;;-1.90;100.00
33075;BME280;19433;51.292;6.868;2022-12-10T04:08:19;99651.50;;;-1.85;100.00
33075;BME280;19433;51.292;6.868;2022-12-10T04:10:44;99641.22;;;-1.81;100.00
33075;BME280;19433;51.292;6.868;2022-12-10T04:13:10;99667.72;;;-1.75;100.00
33075;BME280;19433;51.292;6.868;2022-12-10T04:15:56;99639.16;;;-2.16;100.00
33075;BME280;19433;51.292;6.868;2022-12-10T04:18:40;99636.44;;;-2.26;100.00
33075;BME280;19433;51.292;6.868;2022-12-10T04:21:06;99662.59;;;-1.97;100.00
33075;BME280;19433;51.292;6.868;2022-12-10T04:23:50;99650.78;;;-1.87;100.00
33075;BME280;19433;51.292;6.868;2022-12-10T04:26:34;99646.19;;;-1.77;100.00
33075;BME280;19433;51.292;6.868;2022-12-10T04:29:22;99657.50;;;-1.91;100.00
33075;BME280;19433;51.292;6.868;2022-12-10T04:31:48;99654.91;;;-1.92;100.00
33075;BME280;19433;51.292;6.868;2022-12-10T04:34:14;99653.22;;;-2.13;100.00
33075;BME280;19433;51.292;6.868;2022-12-10T04:36:40;99635.00;;;-2.10;100.00
33075;BME280;19433;51.292;6.868;2022-12-10T04:39:05;99656.88;;;-1.75;100.00
33075;BME280;19433;51.292;6.868;2022-12-10T04:41:31;99648.09;;;-1.96;100.00
33075;BME280;19433;51.292;6.868;2022-12-10T04:43:59;99667.16;;;-1.79;100.00
33075;BME280;19433;51.292;6.868;2022-12-10T04:46:25;99668.13;;;-1.70;100.00
33075;BME280;19433;51.292;6.868;2022-12-10T04:48:50;99646.34;;;-1.78;100.00
33075;BME280;19433;51.292;6.868;2022-12-10T04:51:16;99677.78;;;-1.58;100.00
33075;BME280;19433;51.292;6.868;2022-12-10T04:53:41;99652.78;;;-1.89;100.00
33075;BME280;19433;51.292;6.868;2022-12-10T04:56:07;99661.75;;;-1.88;100.00
33075;BME280;19433;51.292;6.868;2022-12-10T04:58:33;99653.63;;;-1.88;100.00
33075;BME280;19433;51.292;6.868;2022-12-10T05:01:07;99650.03;;;-1.69;100.00
33075;BME280;19433;51.292;6.868;2022-12-10T05:03:34;99657.78;;;-1.84;100.00
33075;BME280;19433;51.292;6.868;2022-12-10T05:06:07;99657.50;;;-2.00;100.00
33075;BME280;19433;51.292;6.868;2022-12-10T05:08:34;99654.34;;;-1.86;100.00
33075;BME280;19433;51.292;6.868;2022-12-10T05:11:05;99656.19;;;-1.87;100.00
33075;BME280;19433;51.292;6.868;2022-12-10T05:13:31;99677.72;;;-1.85;100.00
33075;BME280;19433;51.292;6.868;2022-12-10T05:15:57;99682.13;;;-1.84;100.00
33075;BME280;19433;51.292;6.868;2022-12-10T05:18:24;99680.81;;;-1.80;100.00
33075;BME280;19433;51.292;6.868;2022-12-10T05:20:49;99645.09;;;-1.84;100.00
33075;BME280;19433;51.292;6.868;2022-12-10T05:23:15;99661.97;;;-1.62;100.00
33075;BME280;19433;51.292;6.868;2022-12-10T05:28:25;99677.97;;;-1.69;100.00
33075;BME280;19433;51.292;6.868;2022-12-10T05:30:51;99664.81;;;-1.64;100.00
33075;BME280;19433;51.292;6.868;2022-12-10T05:33:16;99677.97;;;-1.79;100.00
33075;BME280;19433;51.292;6.868;2022-12-10T05:35:42;99668.22;;;-1.52;100.00
33075;BME280;19433;51.292;6.868;2022-12-10T05:38:08;99653.59;;;-1.69;100.00
33075;BME280;19433;51.292;6.868;2022-12-10T05:40:36;99674.53;;;-1.61;100.00
33075;BME280;19433;51.292;6.868;2022-12-10T05:43:02;99665.69;;;-1.54;100.00
33075;BME280;19433;51.292;6.868;2022-12-10T05:45:27;99678.94;;;-1.60;100.00
33075;BME280;19433;51.292;6.868;2022-12-10T05:47:53;99670.56;;;-1.77;100.00
33075;BME280;19433;51.292;6.868;2022-12-10T05:50:18;99678.69;;;-1.77;100.00
33075;BME280;19433;51.292;6.868;2022-12-10T05:52:44;99676.66;;;-1.55;100.00
33075;BME280;19433;51.292;6.868;2022-12-10T05:55:09;99670.16;;;-1.91;100.00
33075;BME280;19433;51.292;6.868;2022-12-10T05:57:36;99691.94;;;-1.73;100.00
33075;BME280;19433;51.292;6.868;2022-12-10T06:00:05;99669.47;;;-1.84;100.00
33075;BME280;19433;51.292;6.868;2022-12-10T06:02:34;99679.97;;;-1.81;100.00
33075;BME280;19433;51.292;6.868;2022-12-10T06:05:00;99678.25;;;-1.72;100.00
33075;BME280;19433;51.292;6.868;2022-12-10T06:07:26;99686.84;;;-1.86;100.00
33075;BME280;19433;51.292;6.868;2022-12-10T06:09:52;99695.91;;;-1.68;100.00
33075;BME280;19433;51.292;6.868;2022-12-10T06:12:17;99671.63;;;-1.50;100.00
33075;BME280;19433;51.292;6.868;2022-12-10T06:14:43;99686.88;;;-1.49;100.00
33075;BME280;19433;51.292;6.868;2022-12-10T06:17:09;99687.47;;;-1.55;100.00
33075;BME280;19433;51.292;6.868;2022-12-10T06:19:34;99686.16;;;-1.42;100.00
33075;BME280;19433;51.292;6.868;2022-12-10T06:22:08;99670.66;;;-1.59;100.00
33075;BME280;19433;51.292;6.868;2022-12-10T06:27:04;99686.78;;;-1.67;100.00
33075;BME280;19433;51.292;6.868;2022-12-10T06:29:30;99689.66;;;-1.78;100.00
33075;BME280;19433;51.292;6.868;2022-12-10T06:31:55;99706.03;;;-1.70;100.00
33075;BME280;19433;51.292;6.868;2022-12-10T06:34:21;99696.06;;;-1.79;100.00
33075;BME280;19433;51.292;6.868;2022-12-10T06:36:46;99701.38;;;-1.87;100.00
33075;BME280;19433;51.292;6.868;2022-12-10T06:39:11;99716.16;;;-1.82;100.00
33075;BME280;19433;51.292;6.868;2022-12-10T06:41:38;99698.22;;;-1.83;100.00
33075;BME280;19433;51.292;6.868;2022-12-10T06:44:07;99712.78;;;-1.84;100.00
33075;BME280;19433;51.292;6.868;2022-12-10T06:46:32;99722.97;;;-1.68;100.00
33075;BME280;19433;51.292;6.868;2022-12-10T06:48:57;99713.59;;;-1.83;100.00
33075;BME280;19433;51.292;6.868;2022-12-10T06:51:23;99710.75;;;-1.91;100.00
33075;BME280;19433;51.292;6.868;2022-12-10T06:53:48;99731.28;;;-1.89;100.00
33075;BME280;19433;51.292;6.868;2022-12-10T06:56:18;99715.03;;;-1.69;100.00
33075;BME280;19433;51.292;6.868;2022-12-10T06:58:44;99704.34;;;-1.90;100.00
33075;BME280;19433;51.292;6.868;2022-12-10T07:01:15;99724.28;;;-1.82;100.00
33075;BME280;19433;51.292;6.868;2022-12-10T07:03:41;99727.97;;;-1.83;100.00
33075;BME280;19433;51.292;6.868;2022-12-10T07:06:10;99722.28;;;-1.80;100.00
33075;BME280;19433;51.292;6.868;2022-12-10T07:08:36;99727.81;;;-1.62;100.00
33075;BME280;19433;51.292;6.868;2022-12-10T07:11:06;99731.69;;;-1.74;100.00
33075;BME280;19433;51.292;6.868;2022-12-10T07:13:31;99741.78;;;-1.66;100.00
33075;BME280;19433;51.292;6.868;2022-12-10T07:15:57;99727.28;;;-1.75;100.00
33075;BME280;19433;51.292;6.868;2022-12-10T07:18:22;99724.84;;;-1.78;100.00
33075;BME280;19433;51.292;6.868;2022-12-10T07:20:47;99743.50;;;-1.65;100.00
33075;BME280;19433;51.292;6.868;2022-12-10T07:23:12;99736.38;;;-1.66;100.00
33075;BME280;19433;51.292;6.868;2022-12-10T07:25:38;99746.75;;;-1.52;100.00
33075;BME280;19433;51.292;6.868;2022-12-10T07:28:03;99746.78;;;-1.62;100.00
33075;BME280;19433;51.292;6.868;2022-12-10T07:30:28;99745.34;;;-1.56;100.00
33075;BME280;19433;51.292;6.868;2022-12-10T07:32:53;99748.34;;;-1.59;100.00
33075;BME280;19433;51.292;6.868;2022-12-10T07:35:19;99750.22;;;-1.89;100.00
33075;BME280;19433;51.292;6.868;2022-12-10T07:37:44;99751.53;;;-2.02;100.00
33075;BME280;19433;51.292;6.868;2022-12-10T07:40:10;99747.50;;;-2.08;100.00
33075;BME280;19433;51.292;6.868;2022-12-10T07:42:35;99744.97;;;-2.19;100.00
33075;BME280;19433;51.292;6.868;2022-12-10T07:45:00;99758.34;;;-2.18;100.00
33075;BME280;19433;51.292;6.868;2022-12-10T07:47:26;99754.50;;;-2.15;100.00
33075;BME280;19433;51.292;6.868;2022-12-10T07:49:51;99771.00;;;-2.08;100.00
33075;BME280;19433;51.292;6.868;2022-12-10T07:52:16;99773.16;;;-1.93;100.00
33075;BME280;19433;51.292;6.868;2022-12-10T07:54:42;99764.75;;;-1.80;100.00
33075;BME280;19433;51.292;6.868;2022-12-10T07:57:07;99771.31;;;-1.92;100.00
33075;BME280;19433;51.292;6.868;2022-12-10T07:59:32;99762.91;;;-1.99;100.00
33075;BME280;19433;51.292;6.868;2022-12-10T08:01:58;99772.28;;;-2.13;100.00
33075;BME280;19433;51.292;6.868;2022-12-10T08:04:23;99782.56;;;-2.16;100.00
33075;BME280;19433;51.292;6.868;2022-12-10T08:06:48;99767.28;;;-2.27;100.00
33075;BME280;19433;51.292;6.868;2022-12-10T08:09:14;99777.97;;;-2.25;100.00
33075;BME280;19433;51.292;6.868;2022-12-10T08:11:39;99771.88;;;-2.18;100.00
33075;BME280;19433;51.292;6.868;2022-12-10T08:14:04;99765.88;;;-2.12;100.00
33075;BME280;19433;51.292;6.868;2022-12-10T08:16:29;99787.69;;;-2.03;100.00
33075;BME280;19433;51.292;6.868;2022-12-10T08:18:58;99790.97;;;-2.00;100.00
33075;BME280;19433;51.292;6.868;2022-12-10T08:21:26;99795.94;;;-2.05;100.00
33075;BME280;19433;51.292;6.868;2022-12-10T08:23:53;99801.06;;;-2.12;100.00
33075;BME280;19433;51.292;6.868;2022-12-10T08:26:21;99806.34;;;-2.10;100.00
33075;BME280;19433;51.292;6.868;2022-12-10T08:28:48;99803.75;;;-2.12;100.00
33075;BME280;19433;51.292;6.868;2022-12-10T08:31:18;99797.34;;;-2.10;100.00
33075;BME280;19433;51.292;6.868;2022-12-10T08:33:44;99801.50;;;-2.06;100.00
33075;BME280;19433;51.292;6.868;2022-12-10T08:36:14;99803.50;;;-2.08;100.00
33075;BME280;19433;51.292;6.868;2022-12-10T08:38:41;99807.91;;;-2.07;100.00
33075;BME280;19433;51.292;6.868;2022-12-10T08:41:16;99814.91;;;-1.95;100.00
33075;BME280;19433;51.292;6.868;2022-12-10T08:43:41;99810.06;;;-2.01;100.00
33075;BME280;19433;51.292;6.868;2022-12-10T08:46:07;99808.75;;;-2.07;100.00
33075;BME280;19433;51.292;6.868;2022-12-10T08:48:34;99819.03;;;-2.01;100.00
33075;BME280;19433;51.292;6.868;2022-12-10T08:51:01;99826.31;;;-1.92;100.00
33075;BME280;19433;51.292;6.868;2022-12-10T08:53:27;99837.00;;;-1.81;100.00
33075;BME280;19433;51.292;6.868;2022-12-10T08:55:53;99834.16;;;-1.89;100.00
33075;BME280;19433;51.292;6.868;2022-12-10T08:58:19;99836.53;;;-1.95;100.00
33075;BME280;19433;51.292;6.868;2022-12-10T09:00:45;99830.81;;;-2.12;100.00
33075;BME280;19433;51.292;6.868;2022-12-10T09:03:10;99824.00;;;-1.96;100.00
33075;BME280;19433;51.292;6.868;2022-12-10T09:05:35;99835.59;;;-1.75;100.00
33075;BME280;19433;51.292;6.868;2022-12-10T09:08:01;99837.72;;;-1.79;100.00
33075;BME280;19433;51.292;6.868;2022-12-10T09:10:26;99854.66;;;-1.86;100.00
33075;BME280;19433;51.292;6.868;2022-12-10T09:12:51;99840.84;;;-1.73;100.00
33075;BME280;19433;51.292;6.868;2022-12-10T09:15:17;99850.53;;;-1.61;100.00
33075;BME280;19433;51.292;6.868;2022-12-10T09:17:42;99852.69;;;-1.65;100.00
33075;BME280;19433;51.292;6.868;2022-12-10T09:20:08;99842.56;;;-1.53;100.00
33075;BME280;19433;51.292;6.868;2022-12-10T09:22:33;99850.81;;;-1.35;100.00
33075;BME280;19433;51.292;6.868;2022-12-10T09:25:04;99849.28;;;-1.38;100.00
33075;BME280;19433;51.292;6.868;2022-12-10T09:27:30;99855.69;;;-1.39;100.00
33075;BME280;19433;51.292;6.868;2022-12-10T09:29:55;99862.09;;;-1.50;100.00
33075;BME280;19433;51.292;6.868;2022-12-10T09:32:21;99857.97;;;-1.73;100.00
33075;BME280;19433;51.292;6.868;2022-12-10T09:34:46;99854.66;;;-1.77;100.00
33075;BME280;19433;51.292;6.868;2022-12-10T09:37:11;99865.50;;;-1.77;100.00
33075;BME280;19433;51.292;6.868;2022-12-10T09:39:37;99868.63;;;-1.81;100.00
33075;BME280;19433;51.292;6.868;2022-12-10T09:48:05;99866.66;;;-1.50;100.00
33075;BME280;19433;51.292;6.868;2022-12-10T09:50:50;99864.38;;;-1.55;100.00
33075;BME280;19433;51.292;6.868;2022-12-10T09:53:19;99866.78;;;-1.61;100.00
33075;BME280;19433;51.292;6.868;2022-12-10T09:55:47;99870.50;;;-1.53;100.00
33075;BME280;19433;51.292;6.868;2022-12-10T09:58:20;99868.94;;;-1.26;100.00
33075;BME280;19433;51.292;6.868;2022-12-10T10:00:47;99861.94;;;-1.29;100.00
33075;BME280;19433;51.292;6.868;2022-12-10T10:03:15;99870.19;;;-1.11;100.00
33075;BME280;19433;51.292;6.868;2022-12-10T10:05:47;99867.91;;;-1.16;100.00
33075;BME280;19433;51.292;6.868;2022-12-10T10:10:42;99856.75;;;-1.03;100.00
33075;BME280;19433;51.292;6.868;2022-12-10T10:15:45;99869.63;;;-1.34;100.00
33075;BME280;19433;51.292;6.868;2022-12-10T10:18:33;99868.63;;;-1.33;100.00
33075;BME280;19433;51.292;6.868;2022-12-10T10:21:07;99872.66;;;-1.56;100.00
33075;BME280;19433;51.292;6.868;2022-12-10T10:23:35;99858.09;;;-1.65;100.00
33075;BME280;19433;51.292;6.868;2022-12-10T10:26:00;99861.38;;;-1.61;100.00
33075;BME280;19433;51.292;6.868;2022-12-10T10:28:26;99862.09;;;-1.59;100.00
33075;BME280;19433;51.292;6.868;2022-12-10T10:30:53;99867.06;;;-1.64;100.00
33075;BME280;19433;51.292;6.868;2022-12-10T10:33:19;99866.38;;;-1.57;100.00
33075;BME280;19433;51.292;6.868;2022-12-10T10:35:48;99865.06;;;-1.62;100.00
33075;BME280;19433;51.292;6.868;2022-12-10T10:38:22;99859.50;;;-1.90;100.00
33075;BME280;19433;51.292;6.868;2022-12-10T10:40:54;99846.81;;;-1.80;100.00
33075;BME280;19433;51.292;6.868;2022-12-10T10:43:31;99865.81;;;-1.41;100.00
33075;BME280;19433;51.292;6.868;2022-12-10T10:46:01;99867.03;;;-1.07;100.00
33075;BME280;19433;51.292;6.868;2022-12-10T10:52:05;99862.94;;;-1.11;100.00
33075;BME280;19433;51.292;6.868;2022-12-10T10:54:38;99858.34;;;-1.00;100.00
33075;BME280;19433;51.292;6.868;2022-12-10T10:57:10;99858.34;;;-1.00;100.00
33075;BME280;19433;51.292;6.868;2022-12-10T10:59:36;99866.44;;;-0.81;100.00
33075;BME280;19433;51.292;6.868;2022-12-10T11:02:13;99852.13;;;-0.74;100.00
33075;BME280;19433;51.292;6.868;2022-12-10T11:04:55;99864.97;;;-0.76;100.00
33075;BME280;19433;51.292;6.868;2022-12-10T11:10:20;99850.75;;;-0.50;100.00
33075;BME280;19433;51.292;6.868;2022-12-10T11:13:18;99854.19;;;-0.58;100.00
33075;BME280;19433;51.292;6.868;2022-12-10T11:15:44;99851.38;;;-0.66;100.00
33075;BME280;19433;51.292;6.868;2022-12-10T11:18:43;99847.34;;;-0.52;100.00
33075;BME280;19433;51.292;6.868;2022-12-10T11:21:20;99856.91;;;-0.58;100.00
33075;BME280;19433;51.292;6.868;2022-12-10T11:23:57;99847.34;;;-0.52;100.00
33075;BME280;19433;51.292;6.868;2022-12-10T11:30:02;99853.38;;;-0.04;100.00
33075;BME280;19433;51.292;6.868;2022-12-10T11:35:17;99851.47;;;0.24;100.00
33075;BME280;19433;51.292;6.868;2022-12-10T11:38:15;99854.50;;;0.21;100.00
33075;BME280;19433;51.292;6.868;2022-12-10T11:40:55;99845.09;;;0.16;100.00
33075;BME280;19433;51.292;6.868;2022-12-10T11:46:29;99842.56;;;0.14;100.00
33075;BME280;19433;51.292;6.868;2022-12-10T11:52:34;99854.88;;;0.09;100.00
33075;BME280;19433;51.292;6.868;2022-12-10T11:55:13;99856.81;;;-0.02;100.00
33075;BME280;19433;51.292;6.868;2022-12-10T12:00:43;99854.31;;;0.05;100.00
33075;BME280;19433;51.292;6.868;2022-12-10T12:03:31;99842.53;;;-0.04;100.00
33075;BME280;19433;51.292;6.868;2022-12-10T12:06:59;99859.03;;;0.03;100.00
33075;BME280;19433;51.292;6.868;2022-12-10T12:14:37;99854.50;;;0.21;100.00
33075;BME280;19433;51.292;6.868;2022-12-10T12:17:27;99859.00;;;0.13;100.00
33075;BME280;19433;51.292;6.868;2022-12-10T12:20:19;99854.09;;;0.16;100.00
33075;BME280;19433;51.292;6.868;2022-12-10T12:22:51;99859.78;;;0.23;100.00
33075;BME280;19433;51.292;6.868;2022-12-10T12:25:27;99852.31;;;0.07;100.00
33075;BME280;19433;51.292;6.868;2022-12-10T12:31:05;99854.03;;;0.08;100.00
33075;BME280;19433;51.292;6.868;2022-12-10T12:36:22;99864.94;;;-0.02;100.00
33075;BME280;19433;51.292;6.868;2022-12-10T12:41:40;99856.47;;;-0.16;100.00
33075;BME280;19433;51.292;6.868;2022-12-10T12:44:26;99861.13;;;-0.36;100.00
33075;BME280;19433;51.292;6.868;2022-12-10T12:47:19;99849.41;;;-0.37;100.00
33075;BME280;19433;51.292;6.868;2022-12-10T12:49:48;99861.41;;;-0.39;100.00
33075;BME280;19433;51.292;6.868;2022-12-10T12:54:57;99859.56;;;-0.39;100.00
33075;BME280;19433;51.292;6.868;2022-12-10T12:59:56;99855.13;;;-0.12;100.00
33075;BME280;19433;51.292;6.868;2022-12-10T13:05:37;99854.56;;;0.12;100.00
33075;BME280;19433;51.292;6.868;2022-12-10T13:13:39;99865.09;;;-0.03;100.00
33075;BME280;19433;51.292;6.868;2022-12-10T13:24:18;99858.66;;;-0.29;100.00
33075;BME280;19433;51.292;6.868;2022-12-10T13:29:57;99854.59;;;-0.16;100.00
33075;BME280;19433;51.292;6.868;2022-12-10T13:37:37;99865.50;;;0.20;100.00
33075;BME280;19433;51.292;6.868;2022-12-10T13:40:37;99871.31;;;0.07;100.00
33075;BME280;19433;51.292;6.868;2022-12-10T13:48:55;99864.47;;;0.03;100.00
33075;BME280;19433;51.292;6.868;2022-12-10T13:54:26;99871.34;;;-0.20;100.00
33075;BME280;19433;51.292;6.868;2022-12-10T13:57:15;99861.81;;;-0.07;100.00
33075;BME280;19433;51.292;6.868;2022-12-10T13:59:51;99877.00;;;-0.14;100.00
33075;BME280;19433;51.292;6.868;2022-12-10T14:02:52;99868.25;;;-0.08;100.00
33075;BME280;19433;51.292;6.868;2022-12-10T14:08:17;99865.19;;;-0.22;100.00
33075;BME280;19433;51.292;6.868;2022-12-10T14:10:44;99882.41;;;-0.31;100.00
33075;BME280;19433;51.292;6.868;2022-12-10T14:13:13;99884.78;;;-0.28;100.00
33075;BME280;19433;51.292;6.868;2022-12-10T14:15:41;99875.75;;;-0.19;100.00
33075;BME280;19433;51.292;6.868;2022-12-10T14:18:13;99890.44;;;0.15;100.00
33075;BME280;19433;51.292;6.868;2022-12-10T14:20:45;99893.53;;;0.20;100.00
33075;BME280;19433;51.292;6.868;2022-12-10T14:23:28;99893.97;;;0.16;100.00
33075;BME280;19433;51.292;6.868;2022-12-10T14:26:13;99887.81;;;-0.04;100.00
33075;BME280;19433;51.292;6.868;2022-12-10T14:28:56;99890.25;;;-0.01;100.00
33075;BME280;19433;51.292;6.868;2022-12-10T14:31:26;99882.44;;;-0.14;100.00
33075;BME280;19433;51.292;6.868;2022-12-10T14:33:55;99896.34;;;0.01;100.00
33075;BME280;19433;51.292;6.868;2022-12-10T14:36:27;99893.97;;;-0.02;100.00
33075;BME280;19433;51.292;6.868;2022-12-10T14:38:53;99894.25;;;-0.05;100.00
33075;BME280;19433;51.292;6.868;2022-12-10T14:41:20;99898.78;;;0.04;100.00
33075;BME280;19433;51.292;6.868;2022-12-10T14:43:47;99892.59;;;-0.16;100.00
33075;BME280;19433;51.292;6.868;2022-12-10T14:46:16;99905.25;;;-0.07;100.00